Dades meteomassalio
Diari Summary for Maig 30, 2017 Units:  Metric    English   Both
« Previous Day
Next Day »
Diari Semanal Mensual Anual Personalitzat
  Maxima: Minima: Mijana:
Temperatura: -17.8 °C -10.7 °C -6.7 °C
Rosada: -17.8 °C -13.3 °C -11.5 °C
Humitat: Humidity % 38 % 59 %
Velocitat del vent: 0 km/h 0 km/h 9.2 km/h
Racha vent: 0 km/h - -
Vent:- - SE
Pressio: 0 hPa 34327.3 hPa -
Pluja: 0 mm    
Historical Graphs
 
 
Tabular Data for Maig 30, 2017
Time Temperature Dew Point Pressure Wind Wind Speed Wind Gust Humidity Rainfall Rate (Hourly) solar Conditions
-17.8 °C -17.8 °C 0 hPa Calm     Humidity % 0 mm SolarRadiationWatts/m^2 W/m2 Conditions
00:02 -7.4 °C -11.6 °C 34347.6 hPa Calm     62 % 0 mm 0.0 W/m2 CLR
00:07 -7.6 °C -11.6 °C 34361.1 hPa Calm     63 % 0 mm 0.0 W/m2 CLR
00:12 -7.7 °C -11.5 °C 34361.1 hPa Calm     64 % 0 mm 0.0 W/m2 CLR
00:17 -7.7 °C -11.6 °C 34361.1 hPa Calm     64 % 0 mm 0.0 W/m2 CLR
00:22 -7.7 °C -11.6 °C 34361.1 hPa Calm     64 % 0 mm 0.0 W/m2 CLR
00:27 -7.8 °C -11.8 °C 34361.1 hPa Calm     63 % 0 mm 0.0 W/m2 CLR
00:32 -7.8 °C -11.6 °C 34347.6 hPa Calm     64 % 0 mm 0.0 W/m2 CLR
00:37 -7.8 °C -11.4 °C 34347.6 hPa Calm     66 % 0 mm 0.0 W/m2 CLR
00:42 -7.8 °C -11.4 °C 34361.1 hPa Calm     66 % 0 mm 0.0 W/m2 CLR
00:47 -7.8 °C -11.7 °C 34361.1 hPa Calm     64 % 0 mm 0.0 W/m2 CLR
00:52 -7.9 °C -11.4 °C 34361.1 hPa Calm     66 % 0 mm 0.0 W/m2 CLR
00:57 -7.9 °C -11.7 °C 34361.1 hPa Calm     64 % 0 mm 0.0 W/m2 CLR
01:02 -7.9 °C -11.7 °C 34361.1 hPa Calm     65 % 0 mm 0.0 W/m2 CLR
01:07 -8 °C -11.6 °C 34361.1 hPa Calm     66 % 0 mm 0.0 W/m2 CLR
01:12 -8.1 °C -11.8 °C 34361.1 hPa Calm     65 % 0 mm 0.0 W/m2 CLR
01:17 -8.2 °C -11.6 °C 34361.1 hPa Calm     67 % 0 mm 0.0 W/m2 CLR
01:22 -8.2 °C -11.8 °C 34361.1 hPa Calm     66 % 0 mm 0.0 W/m2 CLR
01:27 -8.3 °C -11.8 °C 34361.1 hPa Calm     66 % 0 mm 0.0 W/m2 CLR
01:32 -8.4 °C -12 °C 34361.1 hPa Calm     66 % 0 mm 0.0 W/m2 CLR
01:37 -8.5 °C -12.2 °C 34361.1 hPa Calm     65 % 0 mm 0.0 W/m2 CLR
01:42 -8.6 °C -12.1 °C 34361.1 hPa Calm     66 % 0 mm 0.0 W/m2 CLR
01:47 -8.7 °C -12.3 °C 34361.1 hPa Calm     65 % 0 mm 0.0 W/m2 CLR
01:52 -8.7 °C -12.4 °C 34361.1 hPa Calm     65 % 0 mm 0.0 W/m2 CLR
01:57 -8.8 °C -12.3 °C 34361.1 hPa Calm     67 % 0 mm 0.0 W/m2 CLR
02:02 -8.9 °C -12.3 °C 34361.1 hPa Calm     67 % 0 mm 0.0 W/m2 CLR
02:07 -9 °C -12.4 °C 34347.6 hPa Calm     67 % 0 mm 0.0 W/m2 CLR
02:12 -9 °C -12.6 °C 34347.6 hPa Calm     66 % 0 mm 0.0 W/m2 CLR
02:17 -9.1 °C -12.4 °C 34347.6 hPa Calm     67 % 0 mm 0.0 W/m2 CLR
02:22 -9.1 °C -12.5 °C 34347.6 hPa Calm     67 % 0 mm 0.0 W/m2 CLR
02:27 -9.1 °C -12.5 °C 34347.6 hPa Calm     67 % 0 mm 0.0 W/m2 CLR
02:32 -9.1 °C -12.6 °C 34347.6 hPa Calm     67 % 0 mm 0.0 W/m2 CLR
02:37 -9.2 °C -12.6 °C 34347.6 hPa Calm     67 % 0 mm 0.0 W/m2 CLR
02:42 -9.3 °C -12.8 °C 34347.6 hPa Calm     66 % 0 mm 0.0 W/m2 CLR
02:47 -9.3 °C -12.8 °C 34347.6 hPa Calm     66 % 0 mm 0.0 W/m2 CLR
02:52 -9.4 °C -12.9 °C 34347.6 hPa WSW 9 km/h 9 km/h 66 % 0 mm 0.0 W/m2 CLR
02:57 -9.3 °C -12.6 °C 34347.6 hPa SW 11.9 km/h 11.9 km/h 68 % 0 mm 0.0 W/m2 CLR
03:02 -9.1 °C -12.4 °C 34347.6 hPa SW 3.1 km/h   67 % 0 mm 0.0 W/m2 CLR
03:07 -9 °C -12.7 °C 34347.6 hPa Calm     65 % 0 mm 0.0 W/m2 CLR
03:12 -9.1 °C -12.7 °C 34347.6 hPa Calm     65 % 0 mm 0.0 W/m2 CLR
03:17 -9.1 °C -12.7 °C 34337.4 hPa Calm     66 % 0 mm 0.0 W/m2 CLR
03:22 -9.3 °C -12.8 °C 34337.4 hPa Calm     66 % 0 mm 0.0 W/m2 CLR
03:27 -9.3 °C -12.8 °C 34337.4 hPa Calm     66 % 0 mm 0.0 W/m2 CLR
03:32 -9.4 °C -12.9 °C 34337.4 hPa Calm     66 % 0 mm 0.0 W/m2 CLR
03:37 -9.5 °C -12.8 °C 34337.4 hPa Calm     67 % 0 mm 0.0 W/m2 CLR
03:42 -9.6 °C -12.9 °C 34337.4 hPa Calm     67 % 0 mm 0.0 W/m2 CLR
03:47 -9.6 °C -12.8 °C 34337.4 hPa Calm     68 % 0 mm 0.0 W/m2 CLR
03:52 -9.6 °C -12.7 °C 34327.3 hPa Calm     69 % 0 mm 0.0 W/m2 CLR
03:57 -9.7 °C -13 °C 34327.3 hPa Calm     67 % 0 mm 0.0 W/m2 CLR
04:02 -9.7 °C -13.1 °C 34327.3 hPa Calm     67 % 0 mm 0.0 W/m2 CLR
04:07 -9.8 °C -13 °C 34327.3 hPa Calm     68 % 0 mm 0.0 W/m2 CLR
04:12 -9.8 °C -13.1 °C 34327.3 hPa Calm     68 % 0 mm 0.0 W/m2 CLR
04:17 -9.9 °C -13.1 °C 34337.4 hPa Calm     69 % 0 mm 0.0 W/m2 CLR
04:22 -10 °C -13 °C 34337.4 hPa Calm     70 % 0 mm 0.0 W/m2 CLR
04:27 -10.1 °C -13 °C 34337.4 hPa Calm     70 % 0 mm 0.0 W/m2 CLR
04:32 -10.1 °C -13.2 °C 34337.4 hPa Calm     69 % 0 mm 0.0 W/m2 CLR
04:37 -10.1 °C -13.2 °C 34337.4 hPa Calm     69 % 0 mm 0.0 W/m2 CLR
04:42 -10.1 °C -13.2 °C 34337.4 hPa Calm     69 % 0 mm 0.0 W/m2 CLR
04:47 -10.1 °C -13.2 °C 34337.4 hPa Calm     69 % 0 mm 0.0 W/m2 CLR
04:52 -10.1 °C -13.2 °C 34337.4 hPa Calm     69 % 0 mm 0.0 W/m2 CLR
04:57 -10.1 °C -13.2 °C 34337.4 hPa Calm     69 % 0 mm 0.0 W/m2 CLR
05:02 -10.2 °C -13.3 °C 34337.4 hPa WNW 3.1 km/h   69 % 0 mm 0.0 W/m2 CLR
05:07 -10.1 °C -12.9 °C 34337.4 hPa Calm     72 % 0 mm 0.0 W/m2 CLR
05:12 -10.1 °C -13.1 °C 34337.4 hPa Calm     70 % 0 mm 0.0 W/m2 CLR
05:17 -10.1 °C -13.1 °C 34347.6 hPa Calm     70 % 0 mm 0.0 W/m2 CLR
05:22 -10.2 °C -13.2 °C 34347.6 hPa Calm     70 % 0 mm 0.0 W/m2 CLR
05:27 -10.2 °C -13.1 °C 34347.6 hPa Calm     71 % 0 mm 0.0 W/m2 CLR
05:32 -10.2 °C -13.1 °C 34347.6 hPa Calm     71 % 0 mm 0.0 W/m2 CLR
05:37 -10.3 °C -13.2 °C 34347.6 hPa Calm     71 % 0 mm 0.0 W/m2 CLR
05:42 -10.4 °C -13.2 °C 34347.6 hPa Calm     71 % 0 mm 0.0 W/m2 CLR
05:47 -10.4 °C -13.1 °C 34361.1 hPa Calm     72 % 0 mm 0.0 W/m2 CLR
05:52 -10.4 °C -13.2 °C 34361.1 hPa Calm     72 % 0 mm 0.0 W/m2 CLR
05:57 -10.5 °C -13.2 °C 34361.1 hPa Calm     72 % 0 mm 0.0 W/m2 CLR
06:02 -10.5 °C -13.1 °C 34361.1 hPa Calm     74 % 0 mm 0.0 W/m2 CLR
06:07 -10.6 °C -13.1 °C 34361.1 hPa Calm     74 % 0 mm 0.0 W/m2 CLR
06:12 -10.6 °C -13 °C 34361.1 hPa Calm     75 % 0 mm 0.0 W/m2 CLR
06:17 -10.7 °C -12.9 °C 34361.1 hPa Calm     76 % 0 mm 0.0 W/m2 CLR
06:22 -10.7 °C -12.8 °C 34361.1 hPa Calm     77 % 0 mm 0.0 W/m2 OVC
06:27 -10.7 °C -12.7 °C 34361.1 hPa Calm     78 % 0 mm 0.0 W/m2 OVC
06:33 -10.7 °C -12.7 °C 34361.1 hPa Calm     78 % 0 mm 0.0 W/m2 OVC
06:38 -10.5 °C -12.2 °C 34361.1 hPa WSW 11.9 km/h 11.9 km/h 82 % 0 mm 0.0 W/m2 OVC
06:43 -10.2 °C -11.9 °C 34361.1 hPa Calm     82 % 0 mm 5.0 W/m2 OVC
06:48 -10.2 °C -12.2 °C 34361.1 hPa Calm     79 % 0 mm 5.0 W/m2 OVC
06:53 -10.3 °C -12.3 °C 34361.1 hPa Calm     79 % 0 mm 7.0 W/m2 BKN
06:58 -10.4 °C -12.3 °C 34371.3 hPa Calm     80 % 0 mm 9.0 W/m2 BKN
07:03 -10.4 °C -12.2 °C 34371.3 hPa Calm     81 % 0 mm 9.0 W/m2 BKN
07:08 -10.5 °C -12.2 °C 34371.3 hPa Calm     82 % 0 mm 11.0 W/m2 BKN
07:13 -10.5 °C -12.2 °C 34371.3 hPa Calm     82 % 0 mm 12.0 W/m2 BKN
07:18 -10.4 °C -12 °C 34371.3 hPa Calm     83 % 0 mm 12.0 W/m2 BKN
07:23 -10.4 °C -12.1 °C 34371.3 hPa Calm     82 % 0 mm 16.0 W/m2 BKN
07:28 -10.3 °C -12 °C 34371.3 hPa Calm     82 % 0 mm 21.0 W/m2 BKN
07:33 -10.3 °C -12 °C 34371.3 hPa Calm     82 % 0 mm 28.0 W/m2 BKN
07:38 -10.4 °C -12.1 °C 34384.8 hPa Calm     82 % 0 mm 35.0 W/m2 BKN
07:43 -10.4 °C -11.9 °C 34384.8 hPa Calm     83 % 0 mm 40.0 W/m2 BKN
07:48 -10.3 °C -11.8 °C 34384.8 hPa Calm     84 % 0 mm 53.0 W/m2 BKN
07:53 -10.2 °C -11.8 °C 34384.8 hPa Calm     83 % 0 mm 109.0 W/m2 SCT
07:58 -10.1 °C -11.7 °C 34384.8 hPa Calm     83 % 0 mm 70.0 W/m2 CLR
08:03 -9.9 °C -11.6 °C 34384.8 hPa Calm     83 % 0 mm 77.0 W/m2 CLR
08:08 -9.9 °C -11.6 °C 34395 hPa Calm     82 % 0 mm 74.0 W/m2 FEW
08:13 -9.8 °C -11.5 °C 34395 hPa Calm     82 % 0 mm 88.0 W/m2 FEW
08:18 -9.7 °C -11.8 °C 34395 hPa Calm     78 % 0 mm 139.0 W/m2 CLR
08:23 -9.6 °C -11.9 °C 34395 hPa Calm     76 % 0 mm 104.0 W/m2 CLR
08:28 -9.4 °C -11.9 °C 34395 hPa Calm     75 % 0 mm 123.0 W/m2 CLR
08:33 -9.3 °C -11.8 °C 34395 hPa Calm     74 % 0 mm 156.0 W/m2 CLR
08:38 -9.1 °C -11.7 °C 34395 hPa Calm     74 % 0 mm 287.0 W/m2 CLR
08:43 -8.7 °C -11.4 °C 34395 hPa Calm     73 % 0 mm 380.0 W/m2 CLR
08:48 -8.4 °C -11.6 °C 34395 hPa Calm     69 % 0 mm 339.0 W/m2 CLR
08:53 -8.3 °C -11.4 °C 34395 hPa Calm     69 % 0 mm 178.0 W/m2 CLR
08:58 -8.2 °C -11.3 °C 34395 hPa Calm     69 % 0 mm 246.0 W/m2 CLR
09:03 -8.1 °C -11.3 °C 34395 hPa Calm     69 % 0 mm 385.0 W/m2 CLR
09:08 -7.9 °C -11.1 °C 34395 hPa Calm     69 % 0 mm 253.0 W/m2 CLR
09:13 -7.7 °C -11.2 °C 34395 hPa Calm     67 % 0 mm 213.0 W/m2 CLR
09:18 -7.6 °C -11.1 °C 34395 hPa Calm     67 % 0 mm 186.0 W/m2 CLR
09:23 -7.7 °C -11.2 °C 34395 hPa Calm     67 % 0 mm 171.0 W/m2 CLR
09:28 -7.7 °C -11.2 °C 34395 hPa Calm     67 % 0 mm 229.0 W/m2 CLR
09:33 -7.6 °C -10.9 °C 34395 hPa Calm     68 % 0 mm 188.0 W/m2 CLR
09:38 -7.4 °C -10.8 °C 34405.1 hPa Calm     68 % 0 mm 227.0 W/m2 CLR
09:43 -7.2 °C -10.7 °C 34405.1 hPa Calm     67 % 0 mm 603.0 W/m2 CLR
09:48 -6.8 °C -10.3 °C 34405.1 hPa Calm     67 % 0 mm 628.0 W/m2 CLR
09:53 -6.5 °C -10.4 °C 34405.1 hPa ENE 9 km/h 9 km/h 64 % 0 mm 315.0 W/m2 CLR
09:58 -6.4 °C -10.1 °C 34405.1 hPa Calm     66 % 0 mm 684.0 W/m2 CLR
10:03 -6.1 °C -10.1 °C 34405.1 hPa ENE 11.9 km/h 11.9 km/h 64 % 0 mm 701.0 W/m2 CLR
10:08 -5.9 °C -10.1 °C 34405.1 hPa ENE 15 km/h 15 km/h 62 % 0 mm 714.0 W/m2 CLR
10:13 -5.7 °C -9.9 °C 34395 hPa NNE 9 km/h 9 km/h 62 % 0 mm 707.0 W/m2 CLR
10:18 -5.6 °C -9.9 °C 34405.1 hPa NE 11.9 km/h 11.9 km/h 61 % 0 mm 710.0 W/m2 CLR
10:23 -5.4 °C -9.9 °C 34405.1 hPa East 15 km/h 15 km/h 60 % 0 mm 339.0 W/m2 CLR
10:28 -5.6 °C -10.1 °C 34405.1 hPa ENE 9 km/h   60 % 0 mm 415.0 W/m2 CLR
10:33 -5.5 °C -10.1 °C 34405.1 hPa ENE 9 km/h   60 % 0 mm 724.0 W/m2 CLR
10:38 -5.2 °C -9.9 °C 34405.1 hPa NE 17.9 km/h 17.9 km/h 59 % 0 mm 724.0 W/m2 CLR
10:43 -5.2 °C -9.9 °C 34395 hPa NE 11.9 km/h 11.9 km/h 59 % 0 mm 742.0 W/m2 CLR
10:49 -5.1 °C -9.9 °C 34395 hPa ENE 15 km/h 15 km/h 58 % 0 mm 758.0 W/m2 CLR
10:54 -5.1 °C -10.1 °C 34395 hPa East 6 km/h 6 km/h 57 % 0 mm 747.0 W/m2 CLR
10:59 -5.3 °C -10 °C 34405.1 hPa Calm     59 % 0 mm 443.0 W/m2 CLR
11:04 -5.5 °C -10.2 °C 34395 hPa South 6 km/h   59 % 0 mm 795.0 W/m2 CLR
11:09 -5.4 °C -10.3 °C 34395 hPa ESE 9 km/h   58 % 0 mm 816.0 W/m2 CLR
11:14 -5.4 °C -10.2 °C 34395 hPa NNW 9 km/h 9 km/h 58 % 0 mm 807.0 W/m2 CLR
11:19 -5.1 °C -10.1 °C 34395 hPa Calm     57 % 0 mm 784.0 W/m2 CLR
11:24 -4.9 °C -10.2 °C 34395 hPa North 15 km/h 15 km/h 55 % 0 mm 816.0 W/m2 CLR
11:29 -4.9 °C -10.3 °C 34395 hPa Calm     55 % 0 mm 622.0 W/m2 CLR
11:39 -5.1 °C -10.5 °C 34405.1 hPa NNW 11.9 km/h 11.9 km/h 54 % 0 mm 357.0 W/m2 CLR
11:44 -5.1 °C -10.4 °C 34405.1 hPa Calm     55 % 0 mm 476.0 W/m2 CLR
11:49 -5 °C -10.3 °C 34405.1 hPa Calm     55 % 0 mm 722.0 W/m2 CLR
11:54 -4.7 °C -10.3 °C 34405.1 hPa SE 15 km/h 15 km/h 53 % 0 mm 508.0 W/m2 CLR
11:59 -4.8 °C -10.4 °C 34405.1 hPa NNE 15 km/h 15 km/h 53 % 0 mm 515.0 W/m2 CLR
12:04 -4.9 °C -10.7 °C 34405.1 hPa North 3.1 km/h 3.1 km/h 52 % 0 mm 396.0 W/m2 CLR
12:09 -4.9 °C -10.5 °C 34405.1 hPa Calm     53 % 0 mm 371.0 W/m2 CLR
12:14 -4.7 °C -10.4 °C 34405.1 hPa Calm     52 % 0 mm 933.0 W/m2 CLR
12:19 -4.5 °C -10.6 °C 34405.1 hPa Calm     50 % 0 mm 898.0 W/m2 CLR
12:24 -4.3 °C -10.5 °C 34405.1 hPa Calm     50 % 0 mm 905.0 W/m2 CLR
12:29 -4.2 °C -10.7 °C 34405.1 hPa NE 10.3 km/h 10.3 km/h 48 % 0 mm 921.0 W/m2 CLR
12:34 -4.1 °C -10.8 °C 34405.1 hPa WNW 11.9 km/h 11.9 km/h 47 % 0 mm 949.0 W/m2 CLR
12:39 -4.1 °C -10.9 °C 34395 hPa NW 20.9 km/h 20.9 km/h 46 % 0 mm 944.0 W/m2 CLR
12:44 -4.1 °C -10.9 °C 34395 hPa WNW 3.1 km/h 3.1 km/h 46 % 0 mm 940.0 W/m2 CLR
12:49 -4 °C -11.1 °C 34395 hPa NW 9 km/h 9 km/h 45 % 0 mm 977.0 W/m2 CLR
12:59 -3.9 °C -10.8 °C 34395 hPa ENE 12.9 km/h 12.9 km/h 46 % 0 mm 373.0 W/m2 CLR
13:04 -3.9 °C -10.8 °C 34395 hPa ESE 20.9 km/h 20.9 km/h 46 % 0 mm 953.0 W/m2 CLR
13:09 -3.8 °C -10.9 °C 34384.8 hPa East 17.9 km/h 17.9 km/h 45 % 0 mm 1143.0 W/m2 CLR
13:14 -3.8 °C -10.9 °C 34384.8 hPa East 9 km/h 9 km/h 45 % 0 mm 1158.0 W/m2 CLR
13:16 -3.8 °C -10.9 °C 34384.8 hPa Calm     45 % 0 mm 1158.0 W/m2 CLR
13:21 -3.7 °C -10.8 °C 34384.8 hPa East 3.1 km/h 3.4 km/h 45 % 0 mm 645.0 W/m2 CLR
13:26 -3.4 °C -11 °C 34384.8 hPa ESE 20.9 km/h 20.9 km/h 43 % 0 mm 1136.0 W/m2 CLR
13:31 -3.6 °C -11.1 °C 34384.8 hPa ENE 20.9 km/h 20.9 km/h 43 % 0 mm 1090.0 W/m2 CLR
13:36 -3.6 °C -11.1 °C 34384.8 hPa South 23.8 km/h 23.8 km/h 43 % 0 mm 1076.0 W/m2 CLR
13:41 -3.7 °C -11 °C 34371.3 hPa SSE 15.6 km/h 15.6 km/h 44 % 0 mm 1041.0 W/m2 CLR
13:46 -3.6 °C -11.1 °C 34371.3 hPa ENE 20.9 km/h 20.9 km/h 43 % 0 mm 1004.0 W/m2 CLR
13:51 -3.4 °C -10.9 °C 34371.3 hPa ENE 15 km/h 15 km/h 43 % 0 mm 981.0 W/m2 CLR
13:56 -3.2 °C -11.1 °C 34371.3 hPa NNE 15 km/h 15 km/h 41 % 0 mm 1032.0 W/m2 CLR
14:01 -2.9 °C -11.1 °C 34371.3 hPa ENE 17.9 km/h 17.9 km/h 40 % 0 mm 1071.0 W/m2 CLR
14:06 -2.8 °C -11 °C 34371.3 hPa Calm     40 % 0 mm 770.0 W/m2 CLR
14:11 -2.9 °C -11.1 °C 34371.3 hPa East 11.9 km/h 11.9 km/h 40 % 0 mm 306.0 W/m2 CLR
14:16 -3.2 °C -11.1 °C 34371.3 hPa ENE 20.9 km/h 20.9 km/h 41 % 0 mm 318.0 W/m2 CLR
14:21 -3.4 °C -11 °C 34371.3 hPa ENE 15 km/h 15 km/h 43 % 0 mm 320.0 W/m2 CLR
14:26 -3.5 °C -11 °C 34371.3 hPa NE 23.8 km/h 23.8 km/h 43 % 0 mm 308.0 W/m2 CLR
14:31 -3.6 °C -10.9 °C 34371.3 hPa NNE 23.8 km/h 23.8 km/h 44 % 0 mm 306.0 W/m2 CLR
14:36 -3.6 °C -10.9 °C 34371.3 hPa ENE 11.9 km/h 11.9 km/h 44 % 0 mm 329.0 W/m2 CLR
14:41 -3.5 °C -10.8 °C 34371.3 hPa NE 9 km/h 9 km/h 44 % 0 mm 367.0 W/m2 CLR
14:46 -3.4 °C -10.7 °C 34371.3 hPa ENE 12.9 km/h 12.9 km/h 44 % 0 mm 294.0 W/m2 CLR
14:51 -3.4 °C -11 °C 34361.1 hPa ENE 17.9 km/h 17.9 km/h 43 % 0 mm 316.0 W/m2 CLR
14:56 -3.6 °C -10.9 °C 34361.1 hPa SE 9 km/h 9 km/h 44 % 0 mm 378.0 W/m2 CLR
15:01 -3.6 °C -11.1 °C 34361.1 hPa SSE 9 km/h 9 km/h 43 % 0 mm 415.0 W/m2 CLR
15:06 -3.4 °C -10.9 °C 34361.1 hPa SE 15 km/h 15 km/h 43 % 0 mm 492.0 W/m2 CLR
15:11 -3.4 °C -11.1 °C 34347.6 hPa SE 29.8 km/h 29.8 km/h 42 % 0 mm 390.0 W/m2 CLR
15:16 -3.6 °C -11.1 °C 34361.1 hPa SE 38.8 km/h 38.8 km/h 43 % 0 mm 459.0 W/m2 CLR
15:19 -3.7 °C -11 °C 34361.1 hPa SE 35.7 km/h 35.7 km/h 44 % 0 mm 997.0 W/m2 CLR
15:24 -3.7 °C -10.9 °C 34361.1 hPa SSE 32.8 km/h 32.8 km/h 44 % 0 mm 469.0 W/m2 CLR
15:29 -3.4 °C -11.2 °C 34347.6 hPa ESE 25.9 km/h 25.9 km/h 42 % 0 mm 396.0 W/m2 CLR
15:34 -3.6 °C -11.1 °C 34347.6 hPa SSE 20.9 km/h 20.9 km/h 43 % 0 mm 403.0 W/m2 CLR
15:39 -3.4 °C -11 °C 34347.6 hPa ESE 10.3 km/h 10.3 km/h 43 % 0 mm 673.0 W/m2 CLR
15:44 -3.3 °C -11 °C 34347.6 hPa ESE 35.7 km/h 35.7 km/h 42 % 0 mm 485.0 W/m2 CLR
15:45 -3.3 °C -11 °C 34347.6 hPa ESE 35.7 km/h 35.7 km/h 42 % 0 mm 571.0 W/m2 CLR
15:49 -3.4 °C -11.2 °C 34347.6 hPa ESE 23.8 km/h 23.8 km/h 42 % 0 mm 786.0 W/m2 CLR
15:54 -3.2 °C -10.9 °C 34347.6 hPa ESE 20.9 km/h 20.9 km/h 42 % 0 mm 1053.0 W/m2 CLR
15:59 -3.1 °C -11.1 °C 34347.6 hPa ESE 29.8 km/h 29.8 km/h 41 % 0 mm 438.0 W/m2 CLR
16:04 -3.4 °C -11.3 °C 34361.1 hPa SE 44.7 km/h 44.7 km/h 41 % 0 mm 378.0 W/m2 CLR
16:09 -3.6 °C -11.3 °C 34347.6 hPa SE 18.2 km/h 18.2 km/h 42 % 0 mm 336.0 W/m2 CLR
16:14 -3.3 °C -11 °C 34361.1 hPa SE 35.7 km/h 35.7 km/h 42 % 0 mm 995.0 W/m2 CLR
16:19 -3.5 °C -11.6 °C 34361.1 hPa SSE 47.6 km/h 47.6 km/h 40 % 0 mm 352.0 W/m2 CLR
16:24 -3.7 °C -11.8 °C 34361.1 hPa SE 32.8 km/h 32.8 km/h 40 % 0 mm 251.0 W/m2 CLR
16:29 -3.6 °C -11.7 °C 34347.6 hPa South 26.9 km/h 26.9 km/h 40 % 0 mm 417.0 W/m2 CLR
16:34 -3.6 °C -11.9 °C 34361.1 hPa ESE 29.8 km/h 29.8 km/h 39 % 0 mm 557.0 W/m2 CLR
16:40 -3.5 °C -12.1 °C 34361.1 hPa SSE 41.7 km/h 41.7 km/h 38 % 0 mm 735.0 W/m2 CLR
16:45 -3.4 °C -11.8 °C 34347.6 hPa SE 20.9 km/h 20.9 km/h 39 % 0 mm 677.0 W/m2 CLR
16:50 -3.3 °C -11.9 °C 34347.6 hPa SSE 20.9 km/h 22.2 km/h 38 % 0 mm 745.0 W/m2 CLR
16:55 -3.4 °C -11.5 °C 34347.6 hPa ESE 29.8 km/h 29.8 km/h 40 % 0 mm 721.0 W/m2 CLR
16:59 -3.2 °C -11.8 °C 34347.6 hPa ESE 20.9 km/h 20.9 km/h 38 % 0 mm 696.0 W/m2 CLR
17:04 -3.3 °C -11.8 °C 34361.1 hPa SE 47.6 km/h 47.6 km/h 38 % 0 mm 707.0 W/m2 CLR
17:09 -3.4 °C -12 °C 34361.1 hPa SE 44.7 km/h 44.7 km/h 38 % 0 mm 694.0 W/m2 CLR
17:14 -3.4 °C -12 °C 34361.1 hPa SE 38.8 km/h 38.8 km/h 38 % 0 mm 680.0 W/m2 CLR
17:19 -3.5 °C -12.1 °C 34347.6 hPa ESE 29.8 km/h 29.8 km/h 38 % 0 mm 673.0 W/m2 CLR
17:24 -3.6 °C -12.1 °C 34361.1 hPa ESE 44.7 km/h 44.7 km/h 38 % 0 mm 659.0 W/m2 CLR
17:29 -3.7 °C -12.2 °C 34361.1 hPa SE 35.7 km/h 35.7 km/h 38 % 0 mm 621.0 W/m2 CLR
17:34 -3.7 °C -12.3 °C 34361.1 hPa ESE 35.7 km/h 35.7 km/h 38 % 0 mm 575.0 W/m2 CLR
17:39 -3.7 °C -12 °C 34347.6 hPa SE 38.8 km/h 38.8 km/h 39 % 0 mm 547.0 W/m2 CLR
17:45 -3.7 °C -11.6 °C 34361.1 hPa SE 33.6 km/h 33.6 km/h 41 % 0 mm 545.0 W/m2 CLR
17:50 -3.7 °C -11.4 °C 34361.1 hPa ESE 38.8 km/h 38.8 km/h 42 % 0 mm 149.0 W/m2 CLR
17:55 -3.9 °C -11.6 °C 34361.1 hPa ESE 29.8 km/h 29.8 km/h 42 % 0 mm 183.0 W/m2 CLR
18:00 -3.7 °C -11.4 °C 34361.1 hPa South 29.8 km/h 29.8 km/h 42 % 0 mm 540.0 W/m2 CLR
18:05 -3.7 °C -11.3 °C 34361.1 hPa SE 29.8 km/h 29.8 km/h 42 % 0 mm 568.0 W/m2 CLR
18:10 -3.7 °C -11.3 °C 34361.1 hPa SE 29.8 km/h 29.8 km/h 42 % 0 mm 246.0 W/m2 CLR
18:15 -3.8 °C -11.3 °C 34361.1 hPa ESE 35.7 km/h 35.7 km/h 43 % 0 mm 211.0 W/m2 CLR
18:20 -4 °C -11.1 °C 34371.3 hPa SE 35.7 km/h 35.7 km/h 45 % 0 mm 146.0 W/m2 CLR
18:25 -4.1 °C -11 °C 34371.3 hPa SE 35.7 km/h 35.7 km/h 46 % 0 mm 244.0 W/m2 CLR
18:30 -4.2 °C -11.1 °C 34371.3 hPa SE 32.8 km/h 32.8 km/h 46 % 0 mm 455.0 W/m2 CLR
18:35 -4.2 °C -10.9 °C 34371.3 hPa SSE 32.8 km/h 32.8 km/h 47 % 0 mm 454.0 W/m2 CLR
18:40 -4.3 °C -10.9 °C 34371.3 hPa ESE 38.8 km/h 38.8 km/h 47 % 0 mm 179.0 W/m2 CLR
18:45 -4.4 °C -10.9 °C 34371.3 hPa SSE 38.8 km/h 38.8 km/h 48 % 0 mm 120.0 W/m2 CLR
18:50 -4.4 °C -10.9 °C 34371.3 hPa SSE 35.7 km/h 35.7 km/h 48 % 0 mm 218.0 W/m2 CLR
18:55 -4.6 °C -11 °C 34371.3 hPa SE 32.8 km/h 32.8 km/h 48 % 0 mm 58.0 W/m2 CLR
19:00 -4.6 °C -11 °C 34384.8 hPa SSE 20.9 km/h 20.9 km/h 48 % 0 mm 58.0 W/m2 FEW
19:05 -4.6 °C -11.1 °C 34384.8 hPa SSE 26.9 km/h 26.9 km/h 48 % 0 mm 35.0 W/m2 SCT
19:07 -4.6 °C -11.1 °C 34384.8 hPa SSE 31.1 km/h 31.1 km/h 48 % 0 mm 32.0 W/m2 SCT
19:12 -4.7 °C -11.2 °C 34384.8 hPa SSW 29.8 km/h 29.8 km/h 48 % 0 mm 26.0 W/m2 BKN
19:17 -4.7 °C -11 °C 34395 hPa South 23.8 km/h 23.8 km/h 49 % 0 mm 21.0 W/m2 BKN
19:22 -4.8 °C -11.1 °C 34395 hPa South 15 km/h 15 km/h 49 % 0 mm 21.0 W/m2 BKN
19:27 -4.8 °C -11.3 °C 34405.1 hPa Calm     48 % 0 mm 21.0 W/m2 BKN
19:32 -5.1 °C -10.6 °C 34418.7 hPa WNW 41.7 km/h 41.7 km/h 54 % 0 mm 19.0 W/m2 BKN
19:37 -5.7 °C -10.4 °C 34418.7 hPa WNW 9 km/h   58 % 0 mm 19.0 W/m2 BKN
19:42 -5.9 °C -10.7 °C 34405.1 hPa WNW 32.8 km/h 32.8 km/h 58 % 0 mm 26.0 W/m2 BKN
19:47 -6 °C -10.8 °C 34405.1 hPa NW 35.7 km/h 35.7 km/h 58 % 0 mm 37.0 W/m2 BKN
19:52 -6.1 °C -10.5 °C 34405.1 hPa West 26.9 km/h 26.9 km/h 60 % 0 mm 42.0 W/m2 BKN
19:57 -6.1 °C -10.2 °C 34405.1 hPa SW 9 km/h 9 km/h 63 % 0 mm 62.0 W/m2 BKN
20:02 -6.3 °C -10.1 °C 34395 hPa SW 11.9 km/h 11.9 km/h 65 % 0 mm 81.0 W/m2 SCT
20:07 -6.5 °C -10.2 °C 34395 hPa WSW 6 km/h 6 km/h 66 % 0 mm 88.0 W/m2 FEW
20:12 -6.6 °C -10.1 °C 34395 hPa Calm     67 % 0 mm 84.0 W/m2 CLR
20:17 -6.6 °C -10.2 °C 34395 hPa Calm     66 % 0 mm 84.0 W/m2 CLR
20:22 -6.6 °C -10.2 °C 34395 hPa Calm     66 % 0 mm 69.0 W/m2 FEW
20:27 -6.5 °C -10.3 °C 34395 hPa Calm     65 % 0 mm 54.0 W/m2 SCT
20:32 -6.4 °C -10.3 °C 34395 hPa Calm     64 % 0 mm 44.0 W/m2 SCT
20:42 -6.2 °C -10.4 °C 34395 hPa Calm     62 % 0 mm 44.0 W/m2 BKN
20:47 -6.1 °C -10.6 °C 34405.1 hPa Calm     60 % 0 mm 30.0 W/m2 BKN
20:52 -6.1 °C -10.5 °C 34405.1 hPa Calm     60 % 0 mm 21.0 W/m2 BKN
20:57 -6 °C -10.4 °C 34405.1 hPa Calm     60 % 0 mm 16.0 W/m2 BKN
21:02 -6 °C -10.4 °C 34405.1 hPa Calm     60 % 0 mm 11.0 W/m2 BKN
21:07 -6 °C -10.8 °C 34405.1 hPa Calm     58 % 0 mm 7.0 W/m2 BKN
21:12 -5.9 °C -11.2 °C 34405.1 hPa Calm     55 % 0 mm 5.0 W/m2 OVC
21:17 -5.9 °C -11.1 °C 34418.7 hPa Calm     55 % 0 mm 0.0 W/m2 OVC
21:22 -5.9 °C -11.3 °C 34405.1 hPa Calm     54 % 0 mm 0.0 W/m2 OVC
21:27 -5.8 °C -11.2 °C 34418.7 hPa SE 9 km/h 9 km/h 54 % 0 mm 0.0 W/m2 OVC
21:32 -5.9 °C -11.3 °C 34418.7 hPa ESE 9 km/h 9 km/h 54 % 0 mm 0.0 W/m2 OVC
21:37 -5.9 °C -11.2 °C 34418.7 hPa Calm     55 % 0 mm 0.0 W/m2 CLR
21:42 -6 °C -11.1 °C 34418.7 hPa ESE 9 km/h 9 km/h 56 % 0 mm 0.0 W/m2 CLR
21:47 -6.1 °C -11.2 °C 34418.7 hPa ESE 9 km/h 9 km/h 56 % 0 mm 0.0 W/m2 CLR
21:52 -6.2 °C -11.2 °C 34418.7 hPa SE 11.9 km/h 11.9 km/h 56 % 0 mm 0.0 W/m2 CLR
21:57 -6.3 °C -11.2 °C 34418.7 hPa Calm     57 % 0 mm 0.0 W/m2 CLR
22:02 -6.3 °C -11.2 °C 34418.7 hPa SE 12.9 km/h 12.9 km/h 57 % 0 mm 0.0 W/m2 CLR
22:07 -6.4 °C -11.3 °C 34418.7 hPa ESE 9 km/h 9 km/h 57 % 0 mm 0.0 W/m2 CLR
22:12 -6.4 °C -11.3 °C 34418.7 hPa SE 11.9 km/h 11.9 km/h 57 % 0 mm 0.0 W/m2 CLR
22:17 -6.5 °C -11.4 °C 34428.8 hPa Calm     57 % 0 mm 0.0 W/m2 CLR
22:22 -6.6 °C -11.4 °C 34428.8 hPa Calm     57 % 0 mm 0.0 W/m2 CLR
22:27 -6.6 °C -11.5 °C 34428.8 hPa Calm     57 % 0 mm 0.0 W/m2 CLR
22:32 -6.6 °C -11.3 °C 34428.8 hPa Calm     58 % 0 mm 0.0 W/m2 CLR
22:37 -6.7 °C -11.4 °C 34442.4 hPa Calm     58 % 0 mm 0.0 W/m2 CLR
22:42 -6.7 °C -11.4 °C 34442.4 hPa Calm     58 % 0 mm 0.0 W/m2 CLR
22:52 -6.8 °C -11.4 °C 34442.4 hPa Calm     59 % 0 mm 0.0 W/m2 CLR
22:57 -6.9 °C -11.3 °C 34442.4 hPa Calm     60 % 0 mm 0.0 W/m2 CLR
22:59 -6.9 °C -11.2 °C 34442.4 hPa Calm     61 % 0 mm 0.0 W/m2 CLR
23:04 -7.1 °C -11.2 °C 34452.6 hPa Calm     62 % 0 mm 0.0 W/m2 CLR
23:09 -7.2 °C -11.2 °C 34452.6 hPa Calm     63 % 0 mm 0.0 W/m2 CLR
23:15 -7.3 °C -11.3 °C 34452.6 hPa Calm     63 % 0 mm 0.0 W/m2 CLR
23:20 -7.3 °C -11.3 °C 34452.6 hPa Calm     63 % 0 mm 0.0 W/m2 CLR
23:25 -7.4 °C -11.3 °C 34452.6 hPa Calm     64 % 0 mm 0.0 W/m2 CLR
23:30 -7.5 °C -11.2 °C 34452.6 hPa Calm     65 % 0 mm 0.0 W/m2 CLR
23:35 -7.6 °C -11.2 °C 34452.6 hPa Calm     66 % 0 mm 0.0 W/m2 CLR
23:40 -7.6 °C -11.1 °C 34452.6 hPa Calm     67 % 0 mm 0.0 W/m2 CLR
23:45 -7.5 °C -10.9 °C 34462.7 hPa Calm     67 % 0 mm 0.0 W/m2 CLR
23:50 -7.6 °C -11.1 °C 34462.7 hPa Calm     67 % 0 mm 0.0 W/m2 CLR
23:55 -7.7 °C -11.1 °C 34462.7 hPa Calm     68 % 0 mm 0.0 W/m2 CLR
Lo Temps de Massalio
Compliments of Weather Underground - 1.25 mb